CheckWX is a tool to help pilots better visualize weather data.  It is not intended as a substitute for an official pre-flight weather briefing.

16:30:02 UTC

KECP METAR
Northwest Florida Beaches International Airport
Panama City, Florida, USA
Current

37 mins ago

KECP 221553Z VRB05KT 10SM FEW026 SCT035 31/24 A3006 RMK AO2 LTG DSNT W SLP188 T03060244
Observed
Aug-22 @ 15:53 UTC
Wind
  • Variable at 5 KTS
Visibility
10 SM
Flight Rules
VFR
Cloud Levels
  • Few at 2,600' AGL
  • Scattered at 3,500' AGL
Temperature
31°C / 88°F
Dewpoint
24°C / 75°F
Heat Index
37°C / 98°F
Humidity
66%
Altimeter
30.06" Hg
Pressure
1017.92 hPa
Previous

37 mins ago

KECP 221553Z COR VRB05KT 10SM SCT026 SCT035 31/24 A3006 RMK AO2 LTG DSNT W SLP188 T03060244
Observed
Aug-22 @ 15:53 UTC
Wind
  • Variable at 5 KTS
Visibility
10 SM
Flight Rules
VFR
Cloud Levels
  • Scattered at 2,600' AGL
  • Scattered at 3,500' AGL
Temperature
31°C / 88°F
Dewpoint
24°C / 75°F
Heat Index
37°C / 98°F
Humidity
66%
Altimeter
30.06" Hg
Pressure
1017.92 hPa
Previous

2 hours ago

KECP 221453Z 14007KT 10SM FEW018 SCT025 29/24 A3007 RMK AO2 SLP192 T02940244 53003
Observed
Aug-22 @ 14:53 UTC
Wind
  • 140° at 7 KTS
Visibility
10 SM
Flight Rules
VFR
Cloud Levels
  • Few at 1,800' AGL
  • Scattered at 2,500' AGL
Temperature
29°C / 84°F
Dewpoint
24°C / 75°F
Heat Index
33°C / 92°F
Humidity
74%
Altimeter
30.07" Hg
Pressure
1018.32 hPa